sensor_id;sensor_type;location;lat;lon;timestamp;temperature;humidity
15355;DHT22;7777;52.254;9.618;2023-07-30T00:01:59;18.70;99.90
15355;DHT22;7777;52.254;9.618;2023-07-30T00:04:25;18.70;99.90
15355;DHT22;7777;52.254;9.618;2023-07-30T00:06:51;18.70;99.90
15355;DHT22;7777;52.254;9.618;2023-07-30T00:09:16;18.70;99.90
15355;DHT22;7777;52.254;9.618;2023-07-30T00:11:42;18.60;99.90
15355;DHT22;7777;52.254;9.618;2023-07-30T00:14:08;18.70;99.90
15355;DHT22;7777;52.254;9.618;2023-07-30T00:16:34;18.60;99.90
15355;DHT22;7777;52.254;9.618;2023-07-30T00:18:59;18.70;99.90
15355;DHT22;7777;52.254;9.618;2023-07-30T00:21:25;18.70;99.90
15355;DHT22;7777;52.254;9.618;2023-07-30T00:23:51;18.60;99.90
15355;DHT22;7777;52.254;9.618;2023-07-30T00:26:16;18.70;99.90
15355;DHT22;7777;52.254;9.618;2023-07-30T00:28:42;18.60;99.90
15355;DHT22;7777;52.254;9.618;2023-07-30T00:31:08;18.60;99.90
15355;DHT22;7777;52.254;9.618;2023-07-30T00:33:33;18.60;99.90
15355;DHT22;7777;52.254;9.618;2023-07-30T00:35:59;18.60;99.90
15355;DHT22;7777;52.254;9.618;2023-07-30T00:38:25;18.60;99.90
15355;DHT22;7777;52.254;9.618;2023-07-30T00:40:50;18.60;99.90
15355;DHT22;7777;52.254;9.618;2023-07-30T00:43:16;18.60;99.90
15355;DHT22;7777;52.254;9.618;2023-07-30T00:45:44;18.60;99.90
15355;DHT22;7777;52.254;9.618;2023-07-30T00:48:11;18.60;99.90
15355;DHT22;7777;52.254;9.618;2023-07-30T00:50:38;18.60;99.90
15355;DHT22;7777;52.254;9.618;2023-07-30T00:53:04;18.60;99.90
15355;DHT22;7777;52.254;9.618;2023-07-30T00:55:31;18.60;99.90
15355;DHT22;7777;52.254;9.618;2023-07-30T00:57:57;18.60;99.90
15355;DHT22;7777;52.254;9.618;2023-07-30T01:00:23;18.60;99.90
15355;DHT22;7777;52.254;9.618;2023-07-30T01:02:51;18.60;99.90
15355;DHT22;7777;52.254;9.618;2023-07-30T01:05:17;18.60;99.90
15355;DHT22;7777;52.254;9.618;2023-07-30T01:07:43;18.60;99.90
15355;DHT22;7777;52.254;9.618;2023-07-30T01:10:09;18.60;99.90
15355;DHT22;7777;52.254;9.618;2023-07-30T01:12:36;18.60;99.90
15355;DHT22;7777;52.254;9.618;2023-07-30T01:15:03;18.60;99.90
15355;DHT22;7777;52.254;9.618;2023-07-30T01:17:30;18.60;99.90
15355;DHT22;7777;52.254;9.618;2023-07-30T01:19:56;18.60;99.90
15355;DHT22;7777;52.254;9.618;2023-07-30T01:22:22;18.60;99.90
15355;DHT22;7777;52.254;9.618;2023-07-30T01:24:49;18.60;99.90
15355;DHT22;7777;52.254;9.618;2023-07-30T01:27:28;18.60;99.90
15355;DHT22;7777;52.254;9.618;2023-07-30T01:30:32;18.60;99.90
15355;DHT22;7777;52.254;9.618;2023-07-30T01:32:52;18.60;99.90
15355;DHT22;7777;52.254;9.618;2023-07-30T01:35:22;18.60;99.90
15355;DHT22;7777;52.254;9.618;2023-07-30T01:37:51;18.60;99.90
15355;DHT22;7777;52.254;9.618;2023-07-30T01:40:18;18.50;99.90
15355;DHT22;7777;52.254;9.618;2023-07-30T01:42:45;18.50;99.90
15355;DHT22;7777;52.254;9.618;2023-07-30T01:45:10;18.50;99.90
15355;DHT22;7777;52.254;9.618;2023-07-30T01:47:36;18.50;99.90
15355;DHT22;7777;52.254;9.618;2023-07-30T01:50:02;18.50;99.90
15355;DHT22;7777;52.254;9.618;2023-07-30T01:52:28;18.50;99.90
15355;DHT22;7777;52.254;9.618;2023-07-30T01:54:54;18.50;99.90
15355;DHT22;7777;52.254;9.618;2023-07-30T01:57:21;18.50;99.90
15355;DHT22;7777;52.254;9.618;2023-07-30T01:59:47;18.50;99.90
15355;DHT22;7777;52.254;9.618;2023-07-30T02:02:12;18.40;99.90
15355;DHT22;7777;52.254;9.618;2023-07-30T02:04:38;18.40;99.90
15355;DHT22;7777;52.254;9.618;2023-07-30T02:07:04;18.40;99.90
15355;DHT22;7777;52.254;9.618;2023-07-30T02:09:30;18.40;99.90
15355;DHT22;7777;52.254;9.618;2023-07-30T02:11:55;18.30;99.90
15355;DHT22;7777;52.254;9.618;2023-07-30T02:14:21;18.30;99.90
15355;DHT22;7777;52.254;9.618;2023-07-30T02:16:47;18.30;99.90
15355;DHT22;7777;52.254;9.618;2023-07-30T02:19:13;18.30;99.90
15355;DHT22;7777;52.254;9.618;2023-07-30T02:21:38;18.30;99.90
15355;DHT22;7777;52.254;9.618;2023-07-30T02:24:08;18.20;99.90
15355;DHT22;7777;52.254;9.618;2023-07-30T02:26:36;18.20;99.90
15355;DHT22;7777;52.254;9.618;2023-07-30T02:29:03;18.20;99.90
15355;DHT22;7777;52.254;9.618;2023-07-30T02:31:28;18.20;99.90
15355;DHT22;7777;52.254;9.618;2023-07-30T02:33:54;18.10;99.90
15355;DHT22;7777;52.254;9.618;2023-07-30T02:36:20;18.10;99.90
15355;DHT22;7777;52.254;9.618;2023-07-30T02:38:45;18.10;99.90
15355;DHT22;7777;52.254;9.618;2023-07-30T02:41:11;18.10;99.90
15355;DHT22;7777;52.254;9.618;2023-07-30T02:43:37;18.00;99.90
15355;DHT22;7777;52.254;9.618;2023-07-30T02:46:03;18.00;99.90
15355;DHT22;7777;52.254;9.618;2023-07-30T02:48:29;18.00;99.90
15355;DHT22;7777;52.254;9.618;2023-07-30T02:50:54;18.00;99.90
15355;DHT22;7777;52.254;9.618;2023-07-30T02:53:20;18.00;99.90
15355;DHT22;7777;52.254;9.618;2023-07-30T02:55:46;17.90;99.90
15355;DHT22;7777;52.254;9.618;2023-07-30T02:58:11;17.90;99.90
15355;DHT22;7777;52.254;9.618;2023-07-30T03:00:37;17.90;99.90
15355;DHT22;7777;52.254;9.618;2023-07-30T03:03:04;17.90;99.90
15355;DHT22;7777;52.254;9.618;2023-07-30T03:05:29;17.90;99.90
15355;DHT22;7777;52.254;9.618;2023-07-30T03:07:55;17.90;99.90
15355;DHT22;7777;52.254;9.618;2023-07-30T03:10:21;17.90;99.90
15355;DHT22;7777;52.254;9.618;2023-07-30T03:12:47;17.90;99.90
15355;DHT22;7777;52.254;9.618;2023-07-30T03:15:12;17.80;99.90
15355;DHT22;7777;52.254;9.618;2023-07-30T03:17:38;17.80;99.90
15355;DHT22;7777;52.254;9.618;2023-07-30T03:20:04;17.80;99.90
15355;DHT22;7777;52.254;9.618;2023-07-30T03:22:31;17.80;99.90
15355;DHT22;7777;52.254;9.618;2023-07-30T03:24:57;17.80;99.90
15355;DHT22;7777;52.254;9.618;2023-07-30T03:27:22;17.80;99.90
15355;DHT22;7777;52.254;9.618;2023-07-30T03:29:48;17.80;99.90
15355;DHT22;7777;52.254;9.618;2023-07-30T03:32:14;17.80;99.90
15355;DHT22;7777;52.254;9.618;2023-07-30T03:34:39;17.80;99.90
15355;DHT22;7777;52.254;9.618;2023-07-30T03:37:05;17.80;99.90
15355;DHT22;7777;52.254;9.618;2023-07-30T03:39:31;17.80;99.90
15355;DHT22;7777;52.254;9.618;2023-07-30T03:41:56;17.80;99.90
15355;DHT22;7777;52.254;9.618;2023-07-30T03:44:22;17.80;99.90
15355;DHT22;7777;52.254;9.618;2023-07-30T03:46:48;17.80;99.90
15355;DHT22;7777;52.254;9.618;2023-07-30T03:49:16;17.70;99.90
15355;DHT22;7777;52.254;9.618;2023-07-30T03:51:42;17.70;99.90
15355;DHT22;7777;52.254;9.618;2023-07-30T03:54:08;17.70;99.90
15355;DHT22;7777;52.254;9.618;2023-07-30T03:56:34;17.70;99.90
15355;DHT22;7777;52.254;9.618;2023-07-30T03:59:00;17.70;99.90
15355;DHT22;7777;52.254;9.618;2023-07-30T04:01:26;17.70;99.90
15355;DHT22;7777;52.254;9.618;2023-07-30T04:03:51;17.70;99.90
15355;DHT22;7777;52.254;9.618;2023-07-30T04:06:17;17.60;99.90
15355;DHT22;7777;52.254;9.618;2023-07-30T04:08:43;17.60;99.90
15355;DHT22;7777;52.254;9.618;2023-07-30T04:11:09;17.60;99.90
15355;DHT22;7777;52.254;9.618;2023-07-30T04:13:35;17.60;99.90
15355;DHT22;7777;52.254;9.618;2023-07-30T04:16:00;17.60;99.90
15355;DHT22;7777;52.254;9.618;2023-07-30T04:18:26;17.60;99.90
15355;DHT22;7777;52.254;9.618;2023-07-30T04:20:57;17.60;99.90
15355;DHT22;7777;52.254;9.618;2023-07-30T04:23:23;17.60;99.90
15355;DHT22;7777;52.254;9.618;2023-07-30T04:25:49;17.60;99.90
15355;DHT22;7777;52.254;9.618;2023-07-30T04:28:16;17.60;99.90
15355;DHT22;7777;52.254;9.618;2023-07-30T04:30:41;17.60;99.90
15355;DHT22;7777;52.254;9.618;2023-07-30T04:33:07;17.50;99.90
15355;DHT22;7777;52.254;9.618;2023-07-30T04:35:33;17.50;99.90
15355;DHT22;7777;52.254;9.618;2023-07-30T04:37:59;17.60;99.90
15355;DHT22;7777;52.254;9.618;2023-07-30T04:40:24;17.60;99.90
15355;DHT22;7777;52.254;9.618;2023-07-30T04:42:50;17.60;99.90
15355;DHT22;7777;52.254;9.618;2023-07-30T04:45:16;17.60;99.90
15355;DHT22;7777;52.254;9.618;2023-07-30T04:47:42;17.60;99.90
15355;DHT22;7777;52.254;9.618;2023-07-30T04:50:08;17.60;99.90
15355;DHT22;7777;52.254;9.618;2023-07-30T04:52:33;17.60;99.90
15355;DHT22;7777;52.254;9.618;2023-07-30T04:54:59;17.60;99.90
15355;DHT22;7777;52.254;9.618;2023-07-30T04:57:25;17.60;99.90
15355;DHT22;7777;52.254;9.618;2023-07-30T04:59:51;17.70;99.90
15355;DHT22;7777;52.254;9.618;2023-07-30T05:02:17;17.70;99.90
15355;DHT22;7777;52.254;9.618;2023-07-30T05:04:43;17.70;99.90
15355;DHT22;7777;52.254;9.618;2023-07-30T05:07:08;17.70;99.90
15355;DHT22;7777;52.254;9.618;2023-07-30T05:09:34;17.70;99.90
15355;DHT22;7777;52.254;9.618;2023-07-30T05:12:00;17.70;99.90
15355;DHT22;7777;52.254;9.618;2023-07-30T05:14:25;17.80;99.90
15355;DHT22;7777;52.254;9.618;2023-07-30T05:16:51;17.80;99.90
15355;DHT22;7777;52.254;9.618;2023-07-30T05:19:17;17.80;99.90
15355;DHT22;7777;52.254;9.618;2023-07-30T05:21:42;17.80;99.90
15355;DHT22;7777;52.254;9.618;2023-07-30T05:24:08;17.80;99.90
15355;DHT22;7777;52.254;9.618;2023-07-30T05:26:34;17.80;99.90
15355;DHT22;7777;52.254;9.618;2023-07-30T05:29:00;17.80;99.90
15355;DHT22;7777;52.254;9.618;2023-07-30T05:31:26;17.80;99.90
15355;DHT22;7777;52.254;9.618;2023-07-30T05:33:52;17.80;99.90
15355;DHT22;7777;52.254;9.618;2023-07-30T05:36:17;17.80;99.90
15355;DHT22;7777;52.254;9.618;2023-07-30T05:38:43;17.80;99.90
15355;DHT22;7777;52.254;9.618;2023-07-30T05:41:09;17.80;99.90
15355;DHT22;7777;52.254;9.618;2023-07-30T05:43:35;17.80;99.90
15355;DHT22;7777;52.254;9.618;2023-07-30T05:46:00;17.90;99.90
15355;DHT22;7777;52.254;9.618;2023-07-30T05:48:26;17.90;99.90
15355;DHT22;7777;52.254;9.618;2023-07-30T05:50:55;17.90;99.90
15355;DHT22;7777;52.254;9.618;2023-07-30T05:53:21;17.90;99.90
15355;DHT22;7777;52.254;9.618;2023-07-30T05:55:46;17.90;99.90
15355;DHT22;7777;52.254;9.618;2023-07-30T05:58:12;17.90;99.90
15355;DHT22;7777;52.254;9.618;2023-07-30T06:00:39;17.90;99.90
15355;DHT22;7777;52.254;9.618;2023-07-30T06:03:05;17.90;99.90
15355;DHT22;7777;52.254;9.618;2023-07-30T06:05:31;17.90;99.90
15355;DHT22;7777;52.254;9.618;2023-07-30T06:07:57;17.90;99.90
15355;DHT22;7777;52.254;9.618;2023-07-30T06:10:25;18.00;99.90
15355;DHT22;7777;52.254;9.618;2023-07-30T06:12:50;18.00;99.90
15355;DHT22;7777;52.254;9.618;2023-07-30T06:15:16;18.00;99.90
15355;DHT22;7777;52.254;9.618;2023-07-30T06:17:42;18.00;99.90
15355;DHT22;7777;52.254;9.618;2023-07-30T06:20:08;18.00;99.90
15355;DHT22;7777;52.254;9.618;2023-07-30T06:22:34;18.10;99.90
15355;DHT22;7777;52.254;9.618;2023-07-30T06:25:00;18.10;99.90
15355;DHT22;7777;52.254;9.618;2023-07-30T06:27:29;18.10;99.90
15355;DHT22;7777;52.254;9.618;2023-07-30T06:29:55;18.10;99.90
15355;DHT22;7777;52.254;9.618;2023-07-30T06:32:21;18.20;99.90
15355;DHT22;7777;52.254;9.618;2023-07-30T06:34:47;18.20;99.90
15355;DHT22;7777;52.254;9.618;2023-07-30T06:37:13;18.20;99.90
15355;DHT22;7777;52.254;9.618;2023-07-30T06:39:39;18.20;99.90
15355;DHT22;7777;52.254;9.618;2023-07-30T06:42:05;18.30;99.90
15355;DHT22;7777;52.254;9.618;2023-07-30T06:44:31;18.30;99.90
15355;DHT22;7777;52.254;9.618;2023-07-30T06:46:56;18.30;99.90
15355;DHT22;7777;52.254;9.618;2023-07-30T06:49:22;18.30;99.90
15355;DHT22;7777;52.254;9.618;2023-07-30T06:51:48;18.40;99.90
15355;DHT22;7777;52.254;9.618;2023-07-30T06:54:17;18.40;99.90
15355;DHT22;7777;52.254;9.618;2023-07-30T06:56:43;18.40;99.90
15355;DHT22;7777;52.254;9.618;2023-07-30T06:59:12;18.40;99.90
15355;DHT22;7777;52.254;9.618;2023-07-30T07:01:38;18.50;99.90
15355;DHT22;7777;52.254;9.618;2023-07-30T07:04:04;18.50;99.90
15355;DHT22;7777;52.254;9.618;2023-07-30T07:06:30;18.60;99.90
15355;DHT22;7777;52.254;9.618;2023-07-30T07:08:55;18.50;99.90
15355;DHT22;7777;52.254;9.618;2023-07-30T07:11:21;18.60;99.90
15355;DHT22;7777;52.254;9.618;2023-07-30T07:13:50;18.60;99.90
15355;DHT22;7777;52.254;9.618;2023-07-30T07:16:16;18.70;99.90
15355;DHT22;7777;52.254;9.618;2023-07-30T07:18:41;18.70;99.80
15355;DHT22;7777;52.254;9.618;2023-07-30T07:21:10;18.70;99.80
15355;DHT22;7777;52.254;9.618;2023-07-30T07:23:36;18.70;99.80
15355;DHT22;7777;52.254;9.618;2023-07-30T07:26:01;18.70;99.40
15355;DHT22;7777;52.254;9.618;2023-07-30T07:28:27;18.70;99.40
15355;DHT22;7777;52.254;9.618;2023-07-30T07:30:54;18.80;99.40
15355;DHT22;7777;52.254;9.618;2023-07-30T07:33:21;18.80;99.30
15355;DHT22;7777;52.254;9.618;2023-07-30T07:35:47;18.80;99.30
15355;DHT22;7777;52.254;9.618;2023-07-30T07:38:14;18.80;99.10
15355;DHT22;7777;52.254;9.618;2023-07-30T07:40:39;18.80;99.30
15355;DHT22;7777;52.254;9.618;2023-07-30T07:43:06;18.80;99.30
15355;DHT22;7777;52.254;9.618;2023-07-30T07:45:32;18.90;99.10
15355;DHT22;7777;52.254;9.618;2023-07-30T07:47:58;18.90;99.40
15355;DHT22;7777;52.254;9.618;2023-07-30T07:50:24;19.00;99.30
15355;DHT22;7777;52.254;9.618;2023-07-30T07:52:50;19.00;99.10
15355;DHT22;7777;52.254;9.618;2023-07-30T07:55:16;19.00;98.90
15355;DHT22;7777;52.254;9.618;2023-07-30T07:57:45;19.00;99.30
15355;DHT22;7777;52.254;9.618;2023-07-30T08:00:11;19.10;99.40
15355;DHT22;7777;52.254;9.618;2023-07-30T08:02:37;19.10;99.30
15355;DHT22;7777;52.254;9.618;2023-07-30T08:05:03;19.20;99.10
15355;DHT22;7777;52.254;9.618;2023-07-30T08:07:29;19.20;99.30
15355;DHT22;7777;52.254;9.618;2023-07-30T08:09:54;19.20;99.20
15355;DHT22;7777;52.254;9.618;2023-07-30T08:12:20;19.30;99.40
15355;DHT22;7777;52.254;9.618;2023-07-30T08:14:46;19.30;99.30
15355;DHT22;7777;52.254;9.618;2023-07-30T08:17:12;19.40;99.40
15355;DHT22;7777;52.254;9.618;2023-07-30T08:19:37;19.40;99.40
15355;DHT22;7777;52.254;9.618;2023-07-30T08:22:03;19.50;99.40
15355;DHT22;7777;52.254;9.618;2023-07-30T08:24:29;19.50;99.20
15355;DHT22;7777;52.254;9.618;2023-07-30T08:26:55;19.60;99.50
15355;DHT22;7777;52.254;9.618;2023-07-30T08:29:20;19.60;99.20
15355;DHT22;7777;52.254;9.618;2023-07-30T08:31:46;19.70;99.20
15355;DHT22;7777;52.254;9.618;2023-07-30T08:34:12;19.70;99.20
15355;DHT22;7777;52.254;9.618;2023-07-30T08:36:38;19.70;98.90
15355;DHT22;7777;52.254;9.618;2023-07-30T08:39:04;19.80;99.10
15355;DHT22;7777;52.254;9.618;2023-07-30T08:41:30;19.90;99.20
15355;DHT22;7777;52.254;9.618;2023-07-30T08:43:56;19.90;99.20
15355;DHT22;7777;52.254;9.618;2023-07-30T08:46:22;19.90;99.00
15355;DHT22;7777;52.254;9.618;2023-07-30T08:48:48;19.90;98.70
15355;DHT22;7777;52.254;9.618;2023-07-30T08:51:21;19.90;99.00
15355;DHT22;7777;52.254;9.618;2023-07-30T08:53:51;19.90;98.80
15355;DHT22;7777;52.254;9.618;2023-07-30T08:56:19;20.00;98.90
15355;DHT22;7777;52.254;9.618;2023-07-30T08:58:44;20.00;99.10
15355;DHT22;7777;52.254;9.618;2023-07-30T09:01:12;20.10;99.20
15355;DHT22;7777;52.254;9.618;2023-07-30T09:03:40;20.10;99.10
15355;DHT22;7777;52.254;9.618;2023-07-30T09:06:07;20.10;99.00
15355;DHT22;7777;52.254;9.618;2023-07-30T09:08:33;20.20;99.00
15355;DHT22;7777;52.254;9.618;2023-07-30T09:11:09;20.20;99.00
15355;DHT22;7777;52.254;9.618;2023-07-30T09:13:42;20.30;99.00
15355;DHT22;7777;52.254;9.618;2023-07-30T09:16:15;20.20;99.00
15355;DHT22;7777;52.254;9.618;2023-07-30T09:18:45;20.20;98.70
15355;DHT22;7777;52.254;9.618;2023-07-30T09:21:12;20.20;98.60
15355;DHT22;7777;52.254;9.618;2023-07-30T09:23:46;20.30;98.70
15355;DHT22;7777;52.254;9.618;2023-07-30T09:26:13;20.30;99.00
15355;DHT22;7777;52.254;9.618;2023-07-30T09:28:42;20.30;98.80
15355;DHT22;7777;52.254;9.618;2023-07-30T09:31:08;20.30;99.00
15355;DHT22;7777;52.254;9.618;2023-07-30T09:33:35;20.30;99.10
15355;DHT22;7777;52.254;9.618;2023-07-30T09:36:07;20.30;98.60
15355;DHT22;7777;52.254;9.618;2023-07-30T09:38:39;20.30;98.40
15355;DHT22;7777;52.254;9.618;2023-07-30T09:41:05;20.30;98.40
15355;DHT22;7777;52.254;9.618;2023-07-30T09:43:35;20.30;98.60
15355;DHT22;7777;52.254;9.618;2023-07-30T09:46:02;20.30;98.50
15355;DHT22;7777;52.254;9.618;2023-07-30T09:48:33;20.30;98.40
15355;DHT22;7777;52.254;9.618;2023-07-30T09:51:01;20.40;98.70
15355;DHT22;7777;52.254;9.618;2023-07-30T09:53:31;20.40;98.60
15355;DHT22;7777;52.254;9.618;2023-07-30T09:56:01;20.40;98.50
15355;DHT22;7777;52.254;9.618;2023-07-30T09:58:31;20.40;98.60
15355;DHT22;7777;52.254;9.618;2023-07-30T10:01:01;20.40;98.30
15355;DHT22;7777;52.254;9.618;2023-07-30T10:03:29;20.40;98.30
15355;DHT22;7777;52.254;9.618;2023-07-30T10:06:00;20.30;98.20
15355;DHT22;7777;52.254;9.618;2023-07-30T10:08:29;20.40;98.50
15355;DHT22;7777;52.254;9.618;2023-07-30T10:10:57;20.30;98.50
15355;DHT22;7777;52.254;9.618;2023-07-30T10:13:24;20.30;98.50
15355;DHT22;7777;52.254;9.618;2023-07-30T10:15:51;20.30;98.50
15355;DHT22;7777;52.254;9.618;2023-07-30T10:18:18;20.30;98.50
15355;DHT22;7777;52.254;9.618;2023-07-30T10:20:53;20.30;98.70
15355;DHT22;7777;52.254;9.618;2023-07-30T10:23:20;20.30;98.80
15355;DHT22;7777;52.254;9.618;2023-07-30T10:25:48;20.30;98.80
15355;DHT22;7777;52.254;9.618;2023-07-30T10:30:57;20.30;98.70
15355;DHT22;7777;52.254;9.618;2023-07-30T10:33:23;20.40;98.80
15355;DHT22;7777;52.254;9.618;2023-07-30T10:35:54;20.30;98.50
15355;DHT22;7777;52.254;9.618;2023-07-30T10:38:22;20.30;98.60
15355;DHT22;7777;52.254;9.618;2023-07-30T10:41:06;20.40;98.70
15355;DHT22;7777;52.254;9.618;2023-07-30T10:43:56;20.30;98.70
15355;DHT22;7777;52.254;9.618;2023-07-30T10:46:22;20.30;98.70
15355;DHT22;7777;52.254;9.618;2023-07-30T10:48:48;20.40;98.80
15355;DHT22;7777;52.254;9.618;2023-07-30T10:51:16;20.30;98.80
15355;DHT22;7777;52.254;9.618;2023-07-30T10:53:47;20.30;98.60
15355;DHT22;7777;52.254;9.618;2023-07-30T10:56:16;20.30;98.70
15355;DHT22;7777;52.254;9.618;2023-07-30T10:58:43;20.30;98.60
15355;DHT22;7777;52.254;9.618;2023-07-30T11:01:15;20.30;98.60
15355;DHT22;7777;52.254;9.618;2023-07-30T11:03:41;20.30;98.70
15355;DHT22;7777;52.254;9.618;2023-07-30T11:06:06;20.30;98.80
15355;DHT22;7777;52.254;9.618;2023-07-30T11:08:43;20.30;98.70
15355;DHT22;7777;52.254;9.618;2023-07-30T11:11:10;20.40;98.90
15355;DHT22;7777;52.254;9.618;2023-07-30T11:16:05;20.40;99.00
15355;DHT22;7777;52.254;9.618;2023-07-30T11:18:32;20.40;98.80
15355;DHT22;7777;52.254;9.618;2023-07-30T11:21:10;20.40;98.50
15355;DHT22;7777;52.254;9.618;2023-07-30T11:23:39;20.40;98.60
15355;DHT22;7777;52.254;9.618;2023-07-30T11:26:08;20.40;98.70
15355;DHT22;7777;52.254;9.618;2023-07-30T11:28:38;20.40;98.70
15355;DHT22;7777;52.254;9.618;2023-07-30T11:31:10;20.30;98.60
15355;DHT22;7777;52.254;9.618;2023-07-30T11:33:45;20.30;98.50
15355;DHT22;7777;52.254;9.618;2023-07-30T11:36:17;20.40;98.80
15355;DHT22;7777;52.254;9.618;2023-07-30T11:38:45;20.30;98.90
15355;DHT22;7777;52.254;9.618;2023-07-30T11:41:14;20.40;98.80
15355;DHT22;7777;52.254;9.618;2023-07-30T11:43:43;20.30;98.80
15355;DHT22;7777;52.254;9.618;2023-07-30T11:46:17;20.40;98.90
15355;DHT22;7777;52.254;9.618;2023-07-30T11:48:49;20.40;98.60
15355;DHT22;7777;52.254;9.618;2023-07-30T11:51:23;20.50;98.80
15355;DHT22;7777;52.254;9.618;2023-07-30T11:56:20;20.60;98.90
15355;DHT22;7777;52.254;9.618;2023-07-30T12:01:26;20.90;99.00
15355;DHT22;7777;52.254;9.618;2023-07-30T12:03:55;21.00;99.20
15355;DHT22;7777;52.254;9.618;2023-07-30T12:06:21;21.10;99.30
15355;DHT22;7777;52.254;9.618;2023-07-30T12:08:51;21.30;99.20
15355;DHT22;7777;52.254;9.618;2023-07-30T12:11:18;21.40;99.40
15355;DHT22;7777;52.254;9.618;2023-07-30T12:13:47;21.50;99.20
15355;DHT22;7777;52.254;9.618;2023-07-30T12:16:15;21.60;99.20
15355;DHT22;7777;52.254;9.618;2023-07-30T12:18:41;21.80;98.70
15355;DHT22;7777;52.254;9.618;2023-07-30T12:21:08;21.80;98.70
15355;DHT22;7777;52.254;9.618;2023-07-30T12:23:36;21.90;99.00
15355;DHT22;7777;52.254;9.618;2023-07-30T12:26:03;22.00;98.30
15355;DHT22;7777;52.254;9.618;2023-07-30T12:28:32;22.10;98.30
15355;DHT22;7777;52.254;9.618;2023-07-30T12:31:00;22.10;98.30
15355;DHT22;7777;52.254;9.618;2023-07-30T12:33:25;22.20;97.90
15355;DHT22;7777;52.254;9.618;2023-07-30T12:35:51;22.20;98.20
15355;DHT22;7777;52.254;9.618;2023-07-30T12:38:18;22.30;98.30
15355;DHT22;7777;52.254;9.618;2023-07-30T12:40:44;22.40;98.50
15355;DHT22;7777;52.254;9.618;2023-07-30T12:43:09;22.50;98.30
15355;DHT22;7777;52.254;9.618;2023-07-30T12:45:35;22.50;98.60
15355;DHT22;7777;52.254;9.618;2023-07-30T12:48:01;22.60;98.70
15355;DHT22;7777;52.254;9.618;2023-07-30T12:50:27;22.80;98.50
15355;DHT22;7777;52.254;9.618;2023-07-30T12:52:53;22.90;99.00
15355;DHT22;7777;52.254;9.618;2023-07-30T12:55:20;23.10;98.90
15355;DHT22;7777;52.254;9.618;2023-07-30T12:57:45;23.10;98.00
15355;DHT22;7777;52.254;9.618;2023-07-30T13:00:11;23.10;96.60
15355;DHT22;7777;52.254;9.618;2023-07-30T13:02:37;23.20;97.30
15355;DHT22;7777;52.254;9.618;2023-07-30T13:05:03;23.20;97.00
15355;DHT22;7777;52.254;9.618;2023-07-30T13:07:29;23.20;96.70
15355;DHT22;7777;52.254;9.618;2023-07-30T13:10:06;23.20;97.50
15355;DHT22;7777;52.254;9.618;2023-07-30T13:12:33;23.30;97.20
15355;DHT22;7777;52.254;9.618;2023-07-30T13:14:59;23.30;96.10
15355;DHT22;7777;52.254;9.618;2023-07-30T13:17:25;23.30;96.50
15355;DHT22;7777;52.254;9.618;2023-07-30T13:19:51;23.30;96.50
15355;DHT22;7777;52.254;9.618;2023-07-30T13:22:17;23.40;96.40
15355;DHT22;7777;52.254;9.618;2023-07-30T13:24:43;23.40;95.90
15355;DHT22;7777;52.254;9.618;2023-07-30T13:27:08;23.40;97.10
15355;DHT22;7777;52.254;9.618;2023-07-30T13:29:42;23.40;95.80
15355;DHT22;7777;52.254;9.618;2023-07-30T13:32:10;23.50;96.00
15355;DHT22;7777;52.254;9.618;2023-07-30T13:34:36;23.50;95.90
15355;DHT22;7777;52.254;9.618;2023-07-30T13:37:02;23.60;96.40
15355;DHT22;7777;52.254;9.618;2023-07-30T13:39:28;23.60;96.00
15355;DHT22;7777;52.254;9.618;2023-07-30T13:41:53;23.70;96.00
15355;DHT22;7777;52.254;9.618;2023-07-30T13:44:20;23.70;96.60
15355;DHT22;7777;52.254;9.618;2023-07-30T13:46:46;23.70;96.30
15355;DHT22;7777;52.254;9.618;2023-07-30T13:49:11;23.70;96.40
15355;DHT22;7777;52.254;9.618;2023-07-30T13:51:37;23.80;96.10
15355;DHT22;7777;52.254;9.618;2023-07-30T13:54:06;23.70;95.00
15355;DHT22;7777;52.254;9.618;2023-07-30T13:56:33;23.70;95.20
15355;DHT22;7777;52.254;9.618;2023-07-30T13:58:59;23.70;95.50
15355;DHT22;7777;52.254;9.618;2023-07-30T14:01:25;23.80;95.60
15355;DHT22;7777;52.254;9.618;2023-07-30T14:03:51;23.70;94.80
15355;DHT22;7777;52.254;9.618;2023-07-30T14:06:20;23.70;95.00
15355;DHT22;7777;52.254;9.618;2023-07-30T14:08:46;23.70;95.60
15355;DHT22;7777;52.254;9.618;2023-07-30T14:11:11;23.70;95.60
15355;DHT22;7777;52.254;9.618;2023-07-30T14:13:37;23.70;95.30
15355;DHT22;7777;52.254;9.618;2023-07-30T14:16:03;23.70;95.10
15355;DHT22;7777;52.254;9.618;2023-07-30T14:18:29;23.70;96.10
15355;DHT22;7777;52.254;9.618;2023-07-30T14:20:54;23.70;95.50
15355;DHT22;7777;52.254;9.618;2023-07-30T14:23:20;23.80;96.00
15355;DHT22;7777;52.254;9.618;2023-07-30T14:25:46;23.80;96.40
15355;DHT22;7777;52.254;9.618;2023-07-30T14:28:12;23.80;96.40
15355;DHT22;7777;52.254;9.618;2023-07-30T14:30:40;23.90;95.70
15355;DHT22;7777;52.254;9.618;2023-07-30T14:33:10;23.90;95.50
15355;DHT22;7777;52.254;9.618;2023-07-30T14:35:36;23.90;95.00
15355;DHT22;7777;52.254;9.618;2023-07-30T14:38:04;23.90;95.30
15355;DHT22;7777;52.254;9.618;2023-07-30T14:40:30;23.80;94.70
15355;DHT22;7777;52.254;9.618;2023-07-30T14:42:57;23.90;95.60
15355;DHT22;7777;52.254;9.618;2023-07-30T14:45:26;23.80;95.30
15355;DHT22;7777;52.254;9.618;2023-07-30T14:47:51;23.80;95.50
15355;DHT22;7777;52.254;9.618;2023-07-30T14:50:17;23.80;95.00
15355;DHT22;7777;52.254;9.618;2023-07-30T14:52:43;23.80;95.40
15355;DHT22;7777;52.254;9.618;2023-07-30T14:55:08;23.70;94.40
15355;DHT22;7777;52.254;9.618;2023-07-30T14:57:34;23.60;94.00
15355;DHT22;7777;52.254;9.618;2023-07-30T15:00:00;23.50;94.50
15355;DHT22;7777;52.254;9.618;2023-07-30T15:02:26;23.40;94.80
15355;DHT22;7777;52.254;9.618;2023-07-30T15:04:53;23.30;93.90
15355;DHT22;7777;52.254;9.618;2023-07-30T15:07:19;23.20;93.80
15355;DHT22;7777;52.254;9.618;2023-07-30T15:09:45;23.00;94.10
15355;DHT22;7777;52.254;9.618;2023-07-30T15:12:12;22.90;93.10
15355;DHT22;7777;52.254;9.618;2023-07-30T15:14:38;22.80;93.70
15355;DHT22;7777;52.254;9.618;2023-07-30T15:17:04;22.70;94.20
15355;DHT22;7777;52.254;9.618;2023-07-30T15:19:31;22.70;94.30
15355;DHT22;7777;52.254;9.618;2023-07-30T15:21:56;22.60;94.50
15355;DHT22;7777;52.254;9.618;2023-07-30T15:24:22;22.50;93.90
15355;DHT22;7777;52.254;9.618;2023-07-30T15:26:48;22.50;94.00
15355;DHT22;7777;52.254;9.618;2023-07-30T15:29:14;22.40;93.50
15355;DHT22;7777;52.254;9.618;2023-07-30T15:31:39;22.30;93.30
15355;DHT22;7777;52.254;9.618;2023-07-30T15:34:05;22.30;93.80
15355;DHT22;7777;52.254;9.618;2023-07-30T15:36:32;22.20;93.70
15355;DHT22;7777;52.254;9.618;2023-07-30T15:38:58;22.10;93.70
15355;DHT22;7777;52.254;9.618;2023-07-30T15:41:23;22.10;93.80
15355;DHT22;7777;52.254;9.618;2023-07-30T15:43:49;22.10;94.00
15355;DHT22;7777;52.254;9.618;2023-07-30T15:46:16;22.00;93.70
15355;DHT22;7777;52.254;9.618;2023-07-30T15:48:46;22.00;93.90
15355;DHT22;7777;52.254;9.618;2023-07-30T15:51:12;22.00;93.80
15355;DHT22;7777;52.254;9.618;2023-07-30T15:53:38;21.90;93.70